Time;durP1;ratioP1;P1;durP2;ratioP2;P2;SDS_P1;SDS_P2;PMS_P1;PMS_P2;Temp;Humidity;BMP_temperature;BMP_pressure;BME280_temperature;BME280_humidity;BME280_pressure;Samples;Min_cycle;Max_cycle;Signal;HPM_P1;HPM_P2
2024/01/06 00:01:37;;;;;;;1.67;1.55;;;;;;;19.42;43.43;100392.09;5045423;28;20104;-75
2024/01/06 00:04:03;;;;;;;1.55;1.45;;;;;;;19.38;43.45;100396.09;5045944;28;20029;-76
2024/01/06 00:06:28;;;;;;;1.80;1.70;;;;;;;19.31;43.45;100393.41;5030807;28;20033;-76
2024/01/06 00:08:54;;;;;;;1.80;1.70;;;;;;;19.30;43.55;100400.50;5048933;28;20060;-76
2024/01/06 00:11:21;;;;;;;2.20;2.00;;;;;;;19.33;43.77;100409.88;5041342;28;20033;-76
2024/01/06 00:13:47;;;;;;;1.83;1.73;;;;;;;19.26;43.64;100399.25;5026055;28;20120;-75
2024/01/06 00:16:12;;;;;;;3.00;1.88;;;;;;;19.29;43.62;100405.97;5030302;28;20381;-75
2024/01/06 00:18:39;;;;;;;1.92;1.75;;;;;;;19.25;43.75;100418.72;5046434;28;20040;-76
2024/01/06 00:21:05;;;;;;;1.60;1.50;;;;;;;19.14;43.60;100394.63;5045082;28;20086;-75
2024/01/06 00:23:30;;;;;;;2.15;1.77;;;;;;;19.23;43.66;100420.75;5044779;28;20044;-76
2024/01/06 00:25:56;;;;;;;2.22;2.03;;;;;;;19.17;43.85;100421.47;5029257;28;20041;-75
2024/01/06 00:28:21;;;;;;;2.10;1.90;;;;;;;19.18;43.88;100430.19;5045685;28;20076;-75
2024/01/06 00:30:47;;;;;;;1.95;1.60;;;;;;;19.13;43.75;100429.94;5024327;28;20064;-75
2024/01/06 00:33:13;;;;;;;2.80;2.15;;;;;;;19.16;43.86;100440.13;5045931;28;20071;-77
2024/01/06 00:35:38;;;;;;;1.98;1.73;;;;;;;19.10;43.75;100440.88;5052624;28;20115;-75
2024/01/06 00:38:04;;;;;;;1.70;1.60;;;;;;;19.08;43.79;100448.97;5048470;28;20028;-75
2024/01/06 00:40:29;;;;;;;2.00;1.80;;;;;;;19.01;43.99;100442.78;5043781;28;20037;-76
2024/01/06 00:42:55;;;;;;;1.77;1.67;;;;;;;19.00;44.05;100457.78;5049300;28;20052;-76
2024/01/06 00:45:20;;;;;;;2.00;1.80;;;;;;;18.92;43.85;100449.16;5047296;28;20484;-76
2024/01/06 00:47:46;;;;;;;3.30;1.95;;;;;;;18.98;43.92;100467.72;5044936;28;20051;-75
2024/01/06 00:50:12;;;;;;;2.10;1.90;;;;;;;18.90;44.13;100461.72;5033958;28;20040;-76
2024/01/06 00:52:38;;;;;;;1.98;1.80;;;;;;;18.95;44.08;100469.91;5040574;28;20039;-76
2024/01/06 00:55:04;;;;;;;3.13;2.22;;;;;;;18.92;43.99;100468.44;5047572;28;20036;-75
2024/01/06 00:57:29;;;;;;;2.15;1.95;;;;;;;18.82;44.04;100462.63;5039299;28;20030;-76
2024/01/06 00:59:55;;;;;;;2.90;1.90;;;;;;;18.86;44.17;100479.75;5033212;28;20412;-76
2024/01/06 01:02:20;;;;;;;1.77;1.67;;;;;;;18.86;44.37;100478.94;5046151;28;20044;-76
2024/01/06 01:04:46;;;;;;;1.90;1.80;;;;;;;18.83;44.13;100482.72;5027525;28;20039;-76
2024/01/06 01:07:12;;;;;;;2.13;1.92;;;;;;;18.78;44.13;100485.09;5032281;28;20382;-76
2024/01/06 01:09:37;;;;;;;2.88;2.10;;;;;;;18.80;44.20;100498.09;5045272;28;20076;-76
2024/01/06 01:12:03;;;;;;;2.10;1.90;;;;;;;18.53;44.21;100465.22;5043709;28;20071;-75
2024/01/06 01:14:29;;;;;;;2.22;2.00;;;;;;;18.68;44.11;100495.91;5040936;28;20090;-75
2024/01/06 01:16:54;;;;;;;2.03;1.90;;;;;;;18.74;44.20;100512.00;5039054;28;20501;-75
2024/01/06 01:19:20;;;;;;;2.28;1.85;;;;;;;18.68;44.16;100501.19;5046976;28;20040;-75
2024/01/06 01:21:45;;;;;;;2.10;1.90;;;;;;;18.76;44.17;100517.94;5025370;28;20079;-74
2024/01/06 01:24:11;;;;;;;1.90;1.80;;;;;;;18.75;44.13;100519.75;5045080;28;20130;-75
2024/01/06 01:26:36;;;;;;;2.03;1.83;;;;;;;18.64;44.19;100502.53;5024779;28;20534;-75
2024/01/06 01:29:02;;;;;;;2.58;2.38;;;;;;;18.62;44.09;100495.75;5043685;28;20049;-76
2024/01/06 01:31:27;;;;;;;2.30;2.10;;;;;;;18.71;44.28;100521.09;5026512;28;20033;-76
2024/01/06 01:33:53;;;;;;;1.95;1.77;;;;;;;18.70;44.22;100524.75;5050655;28;20040;-76
2024/01/06 01:36:18;;;;;;;2.00;1.80;;;;;;;18.58;44.42;100515.59;5047425;28;20044;-75
2024/01/06 01:38:44;;;;;;;2.00;1.80;;;;;;;18.67;44.15;100530.34;5045850;28;20485;-75
2024/01/06 01:41:09;;;;;;;2.28;2.00;;;;;;;18.62;44.38;100533.50;5027676;28;21834;-75
2024/01/06 01:43:35;;;;;;;3.00;2.10;;;;;;;18.66;44.19;100548.00;5031851;28;20048;-75
2024/01/06 01:46:01;;;;;;;2.22;2.03;;;;;;;18.56;44.15;100528.13;5025710;28;20045;-75
2024/01/06 01:48:27;;;;;;;2.45;2.10;;;;;;;18.61;44.09;100539.78;5044332;28;20120;-75
2024/01/06 01:50:56;;;;;;;2.05;1.83;;;;;;;18.63;44.17;100544.91;5050876;28;20148;-76
2024/01/06 01:53:24;;;;;;;2.60;2.10;;;;;;;18.50;44.26;100523.59;5048719;28;20476;-75
2024/01/06 01:55:50;;;;;;;1.98;1.85;;;;;;;18.60;44.13;100539.97;5042952;28;20495;-75
2024/01/06 01:58:16;;;;;;;2.47;2.20;;;;;;;18.56;44.04;100538.69;5047156;28;20342;-75
2024/01/06 02:00:42;;;;;;;2.17;1.98;;;;;;;18.51;44.19;100541.03;5023497;28;20044;-76
2024/01/06 02:03:09;;;;;;;2.30;1.95;;;;;;;18.56;44.28;100552.69;5043955;28;20044;-76
2024/01/06 02:05:34;;;;;;;2.13;1.92;;;;;;;18.52;44.40;100555.88;5045303;28;20032;-76
2024/01/06 02:08:00;;;;;;;2.05;1.95;;;;;;;18.52;44.23;100553.22;5043228;28;20827;-76
2024/01/06 02:10:25;;;;;;;2.42;2.00;;;;;;;18.51;44.42;100562.13;5046304;28;20043;-75
2024/01/06 02:12:51;;;;;;;2.08;1.90;;;;;;;18.49;44.36;100556.19;5045303;28;20068;-75
2024/01/06 02:15:18;;;;;;;1.98;1.80;;;;;;;18.49;44.25;100564.94;5043603;28;20102;-75
2024/01/06 02:17:43;;;;;;;1.92;1.77;;;;;;;18.42;44.16;100556.09;5050177;28;20554;-75
2024/01/06 02:20:11;;;;;;;3.35;2.10;;;;;;;18.41;44.42;100557.91;5044422;28;20041;-75
2024/01/06 02:22:36;;;;;;;1.80;1.70;;;;;;;18.52;44.25;100571.69;5046350;28;20048;-75
2024/01/06 02:25:07;;;;;;;2.08;1.90;;;;;;;18.50;44.25;100565.78;5046578;28;20090;-75
2024/01/06 02:27:33;;;;;;;2.22;2.00;;;;;;;18.40;44.19;100561.53;5044897;28;20045;-75
2024/01/06 02:29:58;;;;;;;1.80;1.70;;;;;;;18.42;44.40;100574.53;5047025;28;20029;-76
2024/01/06 02:32:24;;;;;;;2.08;1.88;;;;;;;18.44;44.32;100580.47;5039993;28;20477;-75
2024/01/06 02:34:49;;;;;;;2.05;1.88;;;;;;;18.35;44.51;100563.91;5026444;28;20041;-75
2024/01/06 02:37:15;;;;;;;2.17;1.90;;;;;;;18.40;44.39;100571.28;5046479;28;20095;-76
2024/01/06 02:39:40;;;;;;;2.03;1.83;;;;;;;18.40;44.46;100590.53;5028823;28;20743;-75
2024/01/06 02:42:06;;;;;;;2.28;2.00;;;;;;;18.38;44.29;100589.91;5045971;28;20040;-75
2024/01/06 02:44:31;;;;;;;2.50;2.00;;;;;;;18.27;44.29;100579.75;5044316;28;20064;-75
2024/01/06 02:46:57;;;;;;;2.47;2.03;;;;;;;18.31;44.47;100583.69;5042822;28;20540;-75
2024/01/06 02:49:22;;;;;;;1.75;1.60;;;;;;;18.38;44.44;100605.72;5023787;28;20041;-76
2024/01/06 02:51:48;;;;;;;2.13;1.92;;;;;;;18.33;44.59;100600.16;5045309;28;20060;-75
2024/01/06 02:54:13;;;;;;;2.30;1.90;;;;;;;18.34;44.67;100601.81;5039447;28;20057;-75
2024/01/06 02:56:39;;;;;;;2.13;1.92;;;;;;;18.40;44.51;100614.28;5044598;28;20622;-75
2024/01/06 02:59:04;;;;;;;2.67;2.10;;;;;;;18.31;44.49;100614.50;5024539;28;20041;-75
2024/01/06 03:01:32;;;;;;;2.35;2.10;;;;;;;18.38;44.28;100626.00;5044999;28;20055;-75
2024/01/06 03:04:00;;;;;;;;;;;;;;;18.19;44.41;100595.63;5030513;28;20029;-74
2024/01/06 03:06:25;;;;;;;2.65;2.00;;;;;;;18.36;44.30;100622.72;5047075;28;19931;-76
2024/01/06 03:08:51;;;;;;;2.65;2.20;;;;;;;18.36;44.30;100625.34;5047424;28;20770;-75
2024/01/06 03:11:16;;;;;;;2.45;2.00;;;;;;;18.36;44.41;100628.81;5050053;28;20056;-76
2024/01/06 03:13:42;;;;;;;1.98;1.80;;;;;;;18.33;44.52;100629.16;5043366;28;20107;-76
2024/01/06 03:16:07;;;;;;;2.17;1.98;;;;;;;18.31;44.52;100628.50;5030723;28;20119;-75
2024/01/06 03:18:33;;;;;;;2.30;2.10;;;;;;;18.08;44.71;100596.03;5043976;28;20052;-76
2024/01/06 03:20:58;;;;;;;1.67;1.58;;;;;;;18.30;44.53;100624.22;5044098;28;20040;-75
2024/01/06 03:23:24;;;;;;;3.17;2.30;;;;;;;18.27;44.65;100636.91;5042247;28;20358;-75
2024/01/06 03:25:49;;;;;;;2.45;2.20;;;;;;;18.04;44.66;100607.91;5023429;28;20044;-75
2024/01/06 03:28:14;;;;;;;2.10;1.90;;;;;;;18.24;44.38;100642.53;5047250;28;20044;-76
2024/01/06 03:30:40;;;;;;;3.13;2.20;;;;;;;18.26;44.54;100643.19;5039841;28;20048;-76
2024/01/06 03:33:06;;;;;;;2.20;1.92;;;;;;;18.26;44.50;100649.28;5039533;28;20033;-75
2024/01/06 03:35:32;;;;;;;2.35;2.15;;;;;;;18.27;44.44;100648.28;5047083;28;20032;-75
2024/01/06 03:37:57;;;;;;;2.22;2.00;;;;;;;18.03;44.58;100616.81;5041200;28;20461;-76
2024/01/06 03:40:23;;;;;;;2.22;2.03;;;;;;;18.24;44.54;100651.28;5023634;28;20044;-75
2024/01/06 03:42:49;;;;;;;2.92;2.50;;;;;;;18.20;44.65;100652.63;5020901;28;20059;-75
2024/01/06 03:45:14;;;;;;;2.53;2.20;;;;;;;18.20;44.68;100649.97;5043880;28;20029;-75
2024/01/06 03:47:40;;;;;;;2.67;2.10;;;;;;;18.19;44.70;100650.16;5043440;28;20532;-74
2024/01/06 03:50:05;;;;;;;2.45;2.25;;;;;;;18.17;44.46;100655.59;5042613;28;20044;-74
2024/01/06 03:52:31;;;;;;;2.25;2.05;;;;;;;18.24;44.38;100659.19;5026268;28;20068;-76
2024/01/06 03:54:56;;;;;;;2.08;1.88;;;;;;;18.39;43.98;100660.09;5042133;28;20048;-75
2024/01/06 03:57:22;;;;;;;2.78;2.40;;;;;;;18.47;44.14;100676.84;5041223;28;20060;-76
2024/01/06 03:59:47;;;;;;;2.00;1.70;;;;;;;18.47;44.02;100675.03;5012388;28;20114;-76
2024/01/06 04:02:13;;;;;;;2.60;2.00;;;;;;;18.43;43.90;100666.66;5024410;28;20029;-76
2024/01/06 04:04:39;;;;;;;2.70;2.15;;;;;;;18.47;44.17;100679.47;5042382;28;20052;-75
2024/01/06 04:07:06;;;;;;;3.20;1.98;;;;;;;18.38;44.15;100669.00;5025691;28;20047;-74
2024/01/06 04:09:31;;;;;;;2.22;2.03;;;;;;;18.46;44.06;100691.03;5039475;28;20051;-75
2024/01/06 04:11:57;;;;;;;2.53;1.90;;;;;;;18.29;44.09;100663.94;5024906;28;20052;-75
2024/01/06 04:14:23;;;;;;;2.33;2.13;;;;;;;18.39;44.17;100697.00;5044611;28;20040;-75
2024/01/06 04:16:48;;;;;;;2.33;2.13;;;;;;;18.35;44.25;100694.88;5036695;28;20087;-75
2024/01/06 04:19:15;;;;;;;2.35;2.00;;;;;;;18.37;44.44;100706.06;5045382;28;20059;-75
2024/01/06 04:21:40;;;;;;;2.85;2.38;;;;;;;18.36;44.45;100709.72;5037459;28;20061;-75
2024/01/06 04:24:06;;;;;;;3.20;2.13;;;;;;;18.34;44.39;100714.34;5042839;28;20434;-75
2024/01/06 04:26:32;;;;;;;2.22;1.85;;;;;;;18.08;44.34;100683.78;5044850;28;20033;-76
2024/01/06 04:28:57;;;;;;;2.35;2.15;;;;;;;18.08;44.42;100685.63;5043214;28;20046;-75
2024/01/06 04:31:23;;;;;;;2.92;2.17;;;;;;;18.25;44.79;100723.25;5044078;28;20051;-75
2024/01/06 04:33:48;;;;;;;2.85;2.22;;;;;;;18.24;44.51;100724.25;5047091;28;20029;-75
2024/01/06 04:36:14;;;;;;;3.38;2.15;;;;;;;18.18;44.56;100711.78;5046321;28;20056;-75
2024/01/06 04:38:39;;;;;;;2.38;2.15;;;;;;;18.23;44.67;100723.44;5047338;28;20025;-75
2024/01/06 04:41:05;;;;;;;2.30;2.00;;;;;;;18.24;44.49;100732.16;5043791;28;20049;-75
2024/01/06 04:43:30;;;;;;;2.35;2.15;;;;;;;18.14;44.54;100713.13;5049000;28;20049;-75
2024/01/06 04:45:57;;;;;;;3.10;2.10;;;;;;;18.22;44.45;100727.06;5050652;28;20040;-76
2024/01/06 04:48:23;;;;;;;2.55;2.22;;;;;;;18.04;44.62;100703.59;5042217;28;20052;-75
2024/01/06 04:50:48;;;;;;;2.65;2.33;;;;;;;18.12;44.55;100726.44;5042556;28;20040;-72
2024/01/06 04:53:14;;;;;;;2.38;2.10;;;;;;;18.14;44.56;100739.47;5044689;28;20037;-76
2024/01/06 04:55:39;;;;;;;3.42;2.20;;;;;;;17.97;44.67;100714.97;5026272;28;20102;-76
2024/01/06 04:58:05;;;;;;;2.30;2.03;;;;;;;18.19;44.62;100750.31;5045911;28;20446;-75
2024/01/06 05:00:30;;;;;;;2.25;2.03;;;;;;;18.16;44.58;100743.56;5046955;28;20041;-75
2024/01/06 05:02:56;;;;;;;2.35;1.80;;;;;;;18.18;44.48;100756.56;5043724;28;20045;-75
2024/01/06 05:05:22;;;;;;;1.98;1.83;;;;;;;18.18;44.57;100753.94;5028227;28;20045;-74
2024/01/06 05:07:47;;;;;;;2.30;2.00;;;;;;;18.17;44.50;100753.13;5046523;28;20114;-75
2024/01/06 05:10:13;;;;;;;2.15;1.63;;;;;;;18.15;44.60;100762.19;5029347;28;20048;-75
2024/01/06 05:12:38;;;;;;;2.30;2.10;;;;;;;18.15;44.55;100770.09;5048428;28;20052;-75
2024/01/06 05:15:04;;;;;;;2.35;2.00;;;;;;;18.14;44.39;100771.91;5045992;28;20067;-74
2024/01/06 05:17:29;;;;;;;2.00;1.80;;;;;;;18.11;44.62;100773.03;5032047;28;20172;-74
2024/01/06 05:19:55;;;;;;;2.00;1.80;;;;;;;18.12;44.39;100779.13;5048653;28;20033;-75
2024/01/06 05:22:21;;;;;;;2.45;1.88;;;;;;;18.11;44.40;100774.88;5045580;28;20045;-76
2024/01/06 05:24:46;;;;;;;2.60;1.90;;;;;;;18.08;44.46;100781.28;5045200;28;20033;-74
2024/01/06 05:27:12;;;;;;;2.42;2.10;;;;;;;18.09;44.47;100795.28;5049308;28;20044;-75
2024/01/06 05:29:37;;;;;;;3.20;2.10;;;;;;;18.08;44.45;100798.91;5026874;28;20129;-75
2024/01/06 05:32:03;;;;;;;2.13;1.90;;;;;;;18.05;44.62;100796.63;5037940;28;20049;-75
2024/01/06 05:34:29;;;;;;;2.40;2.20;;;;;;;18.08;44.46;100804.19;5045486;28;20044;-75
2024/01/06 05:36:54;;;;;;;2.20;1.95;;;;;;;18.08;44.46;100805.00;5028963;28;20071;-75
2024/01/06 05:39:20;;;;;;;2.95;2.22;;;;;;;18.03;44.63;100799.44;5029256;28;20051;-75
2024/01/06 05:41:45;;;;;;;2.28;1.90;;;;;;;18.09;44.33;100811.94;5046570;28;20055;-74
2024/01/06 05:44:11;;;;;;;2.75;1.95;;;;;;;18.15;44.35;100802.53;5045277;28;20052;-75
2024/01/06 05:46:36;;;;;;;2.13;1.92;;;;;;;18.23;44.15;100810.41;5046118;28;20045;-74
2024/01/06 05:49:02;;;;;;;2.00;1.80;;;;;;;18.46;43.63;100810.50;5048754;28;20114;-75
2024/01/06 05:51:28;;;;;;;2.45;1.80;;;;;;;18.55;43.36;100813.94;5042660;28;20029;-75
2024/01/06 05:53:54;;;;;;;1.73;1.63;;;;;;;18.58;43.47;100819.69;5043335;28;20163;-74
2024/01/06 05:56:27;;;;;;;2.05;1.85;;;;;;;18.68;43.45;100836.16;5044291;28;20118;-75
2024/01/06 05:58:53;;;;;;;2.85;2.03;;;;;;;18.66;43.51;100838.13;5047596;28;20042;-75
2024/01/06 06:01:19;;;;;;;2.40;2.00;;;;;;;18.67;43.27;100837.16;5045263;28;20433;-75
2024/01/06 06:03:46;;;;;;;2.05;1.80;;;;;;;18.61;43.55;100837.78;5043002;28;20049;-74
2024/01/06 06:06:12;;;;;;;2.53;1.98;;;;;;;18.66;43.61;100847.84;5049083;28;20064;-75
2024/01/06 06:08:37;;;;;;;2.25;1.90;;;;;;;18.65;43.61;100852.31;5043815;28;20136;-75
2024/01/06 06:11:10;;;;;;;3.13;2.20;;;;;;;18.61;43.52;100850.97;5047232;28;20102;-75
2024/01/06 06:13:40;;;;;;;2.25;1.98;;;;;;;18.57;43.70;100848.88;5044395;28;20507;-76
2024/01/06 06:16:09;;;;;;;2.08;1.88;;;;;;;18.60;43.71;100859.06;5044628;28;20048;-76
2024/01/06 06:18:34;;;;;;;1.88;1.75;;;;;;;18.56;43.81;100857.78;5042111;28;20021;-75
2024/01/06 06:21:00;;;;;;;2.40;2.20;;;;;;;18.51;43.93;100873.28;5028496;28;20033;-75
2024/01/06 06:23:27;;;;;;;2.97;1.92;;;;;;;18.50;43.89;100880.38;5037274;28;20627;-74
2024/01/06 06:25:53;;;;;;;2.13;1.85;;;;;;;18.38;43.97;100872.00;5025883;28;20087;-75
2024/01/06 06:28:18;;;;;;;1.77;1.67;;;;;;;18.43;44.02;100889.94;5028876;28;20044;-75
2024/01/06 06:30:44;;;;;;;2.03;1.83;;;;;;;18.38;44.56;100897.53;5025040;28;20037;-75
2024/01/06 06:33:09;;;;;;;3.05;2.00;;;;;;;18.35;44.12;100895.25;5042926;28;20048;-75
2024/01/06 06:35:35;;;;;;;2.00;1.83;;;;;;;18.34;44.16;100901.50;5025114;28;20046;-76
2024/01/06 06:38:00;;;;;;;2.10;1.90;;;;;;;18.21;44.38;100893.28;5047572;28;20093;-75
2024/01/06 06:40:26;;;;;;;2.13;1.92;;;;;;;18.31;44.07;100910.59;5020892;28;20049;-75
2024/01/06 06:42:51;;;;;;;2.38;2.17;;;;;;;18.29;44.30;100920.44;5046604;28;20051;-75
2024/01/06 06:45:20;;;;;;;2.35;2.03;;;;;;;18.15;44.32;100907.97;5047580;28;20049;-76
2024/01/06 06:47:46;;;;;;;2.25;1.90;;;;;;;18.16;44.39;100911.41;5028226;28;20045;-76
2024/01/06 06:50:11;;;;;;;3.00;2.30;;;;;;;18.08;44.39;100912.22;5038502;28;20041;-76
2024/01/06 06:52:37;;;;;;;2.58;1.73;;;;;;;18.21;44.22;100925.75;5041731;28;20045;-75
2024/01/06 06:55:02;;;;;;;2.38;2.00;;;;;;;18.22;44.39;100935.28;5043311;28;20040;-75
2024/01/06 06:57:28;;;;;;;2.05;1.90;;;;;;;18.20;44.22;100933.81;5025101;28;20041;-76
2024/01/06 06:59:54;;;;;;;2.25;1.90;;;;;;;18.20;44.37;100939.91;5016474;28;20126;-75
2024/01/06 07:02:19;;;;;;;2.08;1.88;;;;;;;18.22;44.34;100945.84;5040291;28;20563;-75
2024/01/06 07:04:45;;;;;;;3.45;1.90;;;;;;;18.21;44.29;100946.81;5039226;28;20045;-75
2024/01/06 07:07:11;;;;;;;2.33;2.10;;;;;;;18.15;44.41;100944.03;5027654;28;20033;-76
2024/01/06 07:09:36;;;;;;;2.05;1.70;;;;;;;18.19;44.25;100958.53;5024008;28;20461;-75
2024/01/06 07:12:02;;;;;;;2.03;1.83;;;;;;;18.27;44.00;100961.16;5042864;28;20044;-76
2024/01/06 07:14:27;;;;;;;2.58;1.98;;;;;;;18.50;43.55;100964.75;5021037;28;20147;-75
2024/01/06 07:16:53;;;;;;;2.40;1.92;;;;;;;18.66;43.23;100971.81;5043644;28;20055;-75
2024/01/06 07:19:18;;;;;;;1.67;1.58;;;;;;;18.39;43.98;100973.81;5045393;28;20047;-74
2024/01/06 07:21:44;;;;;;;1.92;1.70;;;;;;;18.38;44.13;100987.19;5043096;28;20351;-75
2024/01/06 07:24:09;;;;;;;2.33;2.00;;;;;;;18.41;44.21;100984.22;5043464;28;20063;-74
2024/01/06 07:26:36;;;;;;;3.70;2.10;;;;;;;18.51;43.92;100979.59;5048182;28;20044;-75
2024/01/06 07:29:01;;;;;;;2.45;2.00;;;;;;;18.75;43.55;100997.22;5041061;28;20044;-75
2024/01/06 07:31:27;;;;;;;1.90;1.80;;;;;;;18.90;43.29;100994.72;5047525;28;20041;-75
2024/01/06 07:33:53;;;;;;;2.00;1.83;;;;;;;18.77;43.17;100968.84;5043142;28;20346;-75
2024/01/06 07:36:18;;;;;;;3.55;1.88;;;;;;;18.99;42.87;101002.41;5043486;28;20041;-75
2024/01/06 07:38:45;;;;;;;1.80;1.70;;;;;;;19.01;43.02;101000.44;5041816;28;20041;-75
2024/01/06 07:41:11;;;;;;;2.13;1.90;;;;;;;19.06;42.87;101010.50;5027853;28;20074;-75
2024/01/06 07:43:36;;;;;;;2.28;1.70;;;;;;;19.02;43.02;101017.91;5044609;28;20373;-76
2024/01/06 07:46:03;;;;;;;2.10;1.90;;;;;;;18.99;43.05;101007.69;5044146;28;20040;-75
2024/01/06 07:48:29;;;;;;;2.67;2.00;;;;;;;19.05;42.88;101022.03;5041286;28;20041;-76
2024/01/06 07:50:54;;;;;;;2.65;1.90;;;;;;;18.95;42.88;101011.66;5033651;28;20062;-76
2024/01/06 07:53:20;;;;;;;2.58;2.03;;;;;;;19.02;42.89;101030.28;5041233;28;20036;-76
2024/01/06 07:55:45;;;;;;;2.60;1.98;;;;;;;19.00;43.12;101029.63;5039191;28;20743;-76
2024/01/06 07:58:11;;;;;;;2.30;1.95;;;;;;;18.98;42.99;101032.44;5042138;28;20384;-76
2024/01/06 08:00:37;;;;;;;2.20;2.00;;;;;;;18.96;43.02;101037.06;5038604;28;20140;-76
2024/01/06 08:03:05;;;;;;;2.60;1.80;;;;;;;18.85;43.08;101026.03;5026140;28;20393;-76
2024/01/06 08:05:31;;;;;;;2.50;1.90;;;;;;;18.83;43.08;101028.84;5027117;28;20041;-76
2024/01/06 08:07:58;;;;;;;4.07;2.40;;;;;;;18.85;43.08;101040.06;5048588;28;20060;-76
2024/01/06 08:10:23;;;;;;;2.35;2.00;;;;;;;18.81;43.19;101033.47;5046874;28;20048;-76
2024/01/06 08:12:49;;;;;;;2.95;2.38;;;;;;;18.64;43.27;101022.09;5030484;28;20037;-76
2024/01/06 08:15:14;;;;;;;3.30;2.35;;;;;;;18.78;43.21;101046.16;5051799;28;20044;-76
2024/01/06 08:17:43;;;;;;;2.03;1.77;;;;;;;18.68;43.24;101043.72;5051686;28;20048;-76
2024/01/06 08:20:09;;;;;;;2.58;1.95;;;;;;;18.69;43.29;101058.56;5026362;28;20420;-76
2024/01/06 08:22:34;;;;;;;2.50;2.30;;;;;;;18.43;43.33;101022.59;5048392;28;20036;-75
2024/01/06 08:25:00;;;;;;;3.00;2.08;;;;;;;18.62;43.49;101070.72;5047643;28;20431;-77
2024/01/06 08:27:25;;;;;;;2.38;1.92;;;;;;;18.58;43.41;101069.41;5027240;28;20077;-77
2024/01/06 08:29:51;;;;;;;4.88;2.58;;;;;;;18.60;43.48;101077.97;5044285;28;20408;-76
2024/01/06 08:32:16;;;;;;;2.90;2.42;;;;;;;18.54;43.42;101081.28;5042916;28;20073;-76
2024/01/06 08:34:42;;;;;;;2.70;2.15;;;;;;;18.51;43.52;101071.06;5028867;28;20040;-76
2024/01/06 08:37:07;;;;;;;3.10;2.20;;;;;;;18.60;43.41;101084.06;5047248;28;20036;-76
2024/01/06 08:39:33;;;;;;;3.50;2.40;;;;;;;18.72;43.11;101084.59;5045658;28;20378;-75
2024/01/06 08:41:59;;;;;;;2.20;2.00;;;;;;;18.87;42.77;101096.13;5045576;28;20393;-76
2024/01/06 08:44:24;;;;;;;2.08;1.88;;;;;;;18.87;42.67;101085.59;5043975;28;20040;-75
2024/01/06 08:46:50;;;;;;;2.75;2.20;;;;;;;18.88;42.96;101100.44;5046188;28;20037;-77
2024/01/06 08:49:16;;;;;;;6.57;2.50;;;;;;;19.04;42.29;101099.59;5047608;28;20037;-70
2024/01/06 08:51:41;;;;;;;4.85;2.55;;;;;;;18.99;42.82;101107.16;5041477;28;20044;-67
2024/01/06 08:54:07;;;;;;;7.03;2.20;;;;;;;18.94;42.76;101099.75;5028018;28;20041;-67
2024/01/06 08:56:34;;;;;;;4.90;2.40;;;;;;;19.10;42.60;101117.38;5039347;28;20041;-66
2024/01/06 08:58:59;;;;;;;4.53;2.50;;;;;;;19.15;42.62;101116.88;5043466;28;20044;-67
2024/01/06 09:01:25;;;;;;;3.95;2.17;;;;;;;19.11;42.67;101113.75;5040591;28;20029;-67
2024/01/06 09:03:50;;;;;;;2.75;2.20;;;;;;;19.06;42.69;101107.31;5041492;28;20479;-69
2024/01/06 09:06:16;;;;;;;3.17;2.58;;;;;;;19.11;42.51;101115.56;5047918;28;20048;-67
2024/01/06 09:08:41;;;;;;;3.53;2.25;;;;;;;19.22;42.55;101131.88;5045633;28;20091;-65
2024/01/06 09:11:07;;;;;;;3.42;2.75;;;;;;;18.92;43.07;101138.69;5044034;28;20053;-67
2024/01/06 09:13:33;;;;;;;4.53;3.67;;;;;;;19.20;41.91;101131.19;5044744;28;20039;-70
2024/01/06 09:16:00;;;;;;;6.85;3.60;;;;;;;19.47;40.02;101145.03;5046624;28;20029;-74
2024/01/06 09:18:26;;;;;;;6.85;4.07;;;;;;;19.48;39.51;101149.31;5032549;28;20090;-67
2024/01/06 09:20:52;;;;;;;6.82;4.70;;;;;;;19.50;38.42;101142.84;5037466;28;20117;-67
2024/01/06 09:23:17;;;;;;;6.38;4.10;;;;;;;19.50;38.43;101142.84;5044584;28;20037;-74
2024/01/06 09:25:43;;;;;;;9.10;4.68;;;;;;;19.43;37.91;101135.78;5028677;28;20041;-74
2024/01/06 09:28:08;;;;;;;8.82;5.70;;;;;;;19.60;36.76;101163.84;5045822;28;20094;-71
2024/01/06 09:30:34;;;;;;;10.10;5.28;;;;;;;19.50;37.43;101155.25;5040297;28;20114;-70
2024/01/06 09:32:59;;;;;;;10.90;6.78;;;;;;;19.54;37.38;101153.94;5045420;28;20752;-68
2024/01/06 09:35:25;;;;;;;9.82;6.65;;;;;;;19.50;37.57;101166.63;5043154;28;20045;-71
2024/01/06 09:37:50;;;;;;;9.13;7.28;;;;;;;19.40;37.31;101163.38;5044139;28;20037;-70
2024/01/06 09:40:21;;;;;;;8.85;7.32;;;;;;;19.33;37.90;101171.13;5042725;28;20060;-67
2024/01/06 09:42:47;;;;;;;12.00;9.93;;;;;;;19.22;38.11;101163.56;5024146;28;20033;-70
2024/01/06 09:45:12;;;;;;;10.80;7.93;;;;;;;19.28;38.22;101170.81;5026684;28;20258;-67
2024/01/06 09:47:40;;;;;;;9.52;7.85;;;;;;;19.11;39.50;101179.72;5025940;28;20037;-69
2024/01/06 09:50:09;;;;;;;8.73;7.55;;;;;;;19.02;39.10;101165.72;5038389;28;20038;-67
2024/01/06 09:52:41;;;;;;;8.02;6.90;;;;;;;19.27;39.70;101185.00;5039398;28;20029;-67
2024/01/06 09:55:10;;;;;;;9.25;6.60;;;;;;;19.27;39.99;101187.63;5041402;28;20047;-67
2024/01/06 09:57:36;;;;;;;7.22;5.90;;;;;;;19.27;40.33;101176.25;5036011;28;20055;-67
2024/01/06 10:00:04;;;;;;;8.07;6.15;;;;;;;19.05;40.72;101169.03;5041516;28;20478;-67
2024/01/06 10:02:37;;;;;;;9.88;6.03;;;;;;;19.33;40.52;101201.97;5044649;28;20381;-66
2024/01/06 10:05:03;;;;;;;8.30;6.10;;;;;;;19.26;39.17;101196.56;5047696;28;20059;-67
2024/01/06 10:07:29;;;;;;;12.27;6.47;;;;;;;19.36;38.84;101212.22;5041823;28;20076;-67
2024/01/06 10:09:55;;;;;;;7.22;5.60;;;;;;;19.27;39.71;101186.81;5042624;28;20075;-67
2024/01/06 10:12:25;;;;;;;9.15;5.53;;;;;;;19.35;39.79;101185.97;5027137;28;20056;-67
2024/01/06 10:14:51;;;;;;;6.43;5.65;;;;;;;19.50;39.88;101200.16;5041333;28;20028;-68
2024/01/06 10:17:18;;;;;;;7.53;5.13;;;;;;;19.38;40.02;101183.81;5042754;28;20122;-68
2024/01/06 10:19:45;;;;;;;7.63;4.82;;;;;;;19.53;39.57;101213.81;5037859;28;20107;-66
2024/01/06 10:22:10;;;;;;;5.95;5.25;;;;;;;19.49;39.10;101209.06;5044544;28;20044;-68
2024/01/06 10:24:39;;;;;;;5.28;4.53;;;;;;;19.44;39.49;101206.94;5024865;28;20053;-67
2024/01/06 10:27:06;;;;;;;6.55;4.50;;;;;;;19.46;39.72;101209.41;5009494;28;20063;-68
2024/01/06 10:29:32;;;;;;;7.10;4.95;;;;;;;19.40;39.86;101207.44;5027099;28;20037;-65
2024/01/06 10:31:58;;;;;;;7.13;4.60;;;;;;;19.44;40.01;101224.59;5044713;28;20044;-68
2024/01/06 10:34:24;;;;;;;5.93;4.50;;;;;;;19.46;40.28;101222.59;5048626;28;20044;-68
2024/01/06 10:36:54;;;;;;;6.78;4.90;;;;;;;19.48;40.31;101224.09;5038191;28;20033;-68
2024/01/06 10:39:21;;;;;;;6.22;4.80;;;;;;;19.25;40.80;101212.56;5039668;28;20619;-70
2024/01/06 10:41:49;;;;;;;5.88;4.30;;;;;;;19.35;41.03;101228.22;5022978;28;20136;-69
2024/01/06 10:44:15;;;;;;;7.07;4.53;;;;;;;19.37;41.25;101224.41;5041701;28;21830;-68
2024/01/06 10:46:41;;;;;;;5.20;4.22;;;;;;;19.28;41.32;101220.97;5038987;28;20397;-68
2024/01/06 10:49:10;;;;;;;5.00;4.22;;;;;;;19.40;41.42;101229.38;5041472;28;20041;-66
2024/01/06 10:51:37;;;;;;;5.22;4.68;;;;;;;19.37;41.52;101226.22;5038117;28;20048;-67
2024/01/06 10:54:03;;;;;;;5.22;3.88;;;;;;;19.48;41.29;101234.66;5033383;28;20064;-67
2024/01/06 10:56:30;;;;;;;4.88;3.75;;;;;;;19.49;41.17;101215.16;5043308;28;20075;-67
2024/01/06 10:58:56;;;;;;;5.38;3.83;;;;;;;19.57;41.10;101225.75;5040067;28;20595;-68
2024/01/06 11:01:24;;;;;;;5.80;4.25;;;;;;;19.64;40.81;101233.84;5021595;28;20081;-68
2024/01/06 11:03:50;;;;;;;4.20;3.65;;;;;;;19.63;40.95;101223.44;5021753;28;20748;-68
2024/01/06 11:06:18;;;;;;;4.80;4.20;;;;;;;19.63;40.92;101226.91;5040864;28;20049;-68
2024/01/06 11:08:49;;;;;;;4.70;3.63;;;;;;;19.74;40.82;101245.03;5039212;28;20049;-68
2024/01/06 11:11:18;;;;;;;5.30;3.85;;;;;;;19.57;41.00;101227.59;5039853;28;20060;-68
2024/01/06 11:13:45;;;;;;;4.70;3.70;;;;;;;19.60;41.04;101237.81;5041905;28;20071;-67
2024/01/06 11:16:11;;;;;;;3.75;3.42;;;;;;;19.57;41.20;101238.16;5039852;28;20049;-68
2024/01/06 11:18:38;;;;;;;5.13;3.78;;;;;;;19.59;41.21;101242.28;5039601;28;20048;-67